createdAt,value
2022-11-29T00:01:04.276Z,72.17
2022-11-29T00:03:33.199Z,71.83
2022-11-29T00:06:08.086Z,72.09
2022-11-29T00:08:35.181Z,71.90
2022-11-29T00:11:41.213Z,72.00
2022-11-29T00:14:12.086Z,71.87
2022-11-29T00:16:41.070Z,71.95
2022-11-29T00:19:08.956Z,71.74
2022-11-29T00:21:35.826Z,72.01
2022-11-29T00:24:02.791Z,71.83
2022-11-29T00:26:29.511Z,71.63
2022-11-29T00:28:56.045Z,72.01
2022-11-29T00:31:25.283Z,71.95
2022-11-29T00:33:52.565Z,71.70
2022-11-29T00:36:19.984Z,71.95
2022-11-29T00:38:46.751Z,72.01
2022-11-29T00:41:13.433Z,71.70
2022-11-29T00:43:40.406Z,72.02
2022-11-29T00:46:07.859Z,71.79
2022-11-29T00:48:35.022Z,72.01
2022-11-29T00:51:02.517Z,72.05
2022-11-29T00:53:29.306Z,71.99
2022-11-29T00:55:56.310Z,71.80
2022-11-29T00:58:23.324Z,72.11
2022-11-29T01:00:50.230Z,71.80
2022-11-29T01:03:17.785Z,71.83
2022-11-29T01:05:45.508Z,71.79
2022-11-29T01:08:12.418Z,71.85
2022-11-29T01:10:39.415Z,72.00
2022-11-29T01:13:06.765Z,72.10
2022-11-29T01:15:33.482Z,72.31
2022-11-29T01:18:00.282Z,72.14
2022-11-29T01:20:27.863Z,71.98
2022-11-29T01:22:54.717Z,71.97
2022-11-29T01:25:21.523Z,72.35
2022-11-29T01:27:48.189Z,72.26
2022-11-29T01:30:15.128Z,72.08
2022-11-29T01:32:41.827Z,72.18
2022-11-29T01:35:08.851Z,72.09
2022-11-29T01:37:35.606Z,71.94
2022-11-29T01:40:02.627Z,72.13
2022-11-29T01:42:29.258Z,72.24
2022-11-29T01:45:05.480Z,71.87
2022-11-29T01:47:32.939Z,71.87
2022-11-29T01:50:00.188Z,72.06
2022-11-29T01:52:31.420Z,72.05
2022-11-29T01:55:01.835Z,72.35
2022-11-29T01:57:29.665Z,71.99
2022-11-29T02:00:00.860Z,72.04
2022-11-29T02:02:32.711Z,72.18
2022-11-29T02:05:02.699Z,71.91
2022-11-29T02:07:29.698Z,72.39
2022-11-29T02:09:56.577Z,72.28
2022-11-29T02:12:55.750Z,72.35
2022-11-29T02:15:28.822Z,72.09
2022-11-29T02:18:11.759Z,72.20
2022-11-29T02:21:12.528Z,71.98
2022-11-29T02:24:02.049Z,72.16
2022-11-29T02:26:44.212Z,72.25
2022-11-29T02:29:32.093Z,72.05
2022-11-29T02:32:29.676Z,72.34
2022-11-29T02:35:27.051Z,72.33
2022-11-29T02:38:18.045Z,72.17
2022-11-29T02:41:33.358Z,72.27
2022-11-29T02:44:24.825Z,72.51
2022-11-29T02:47:26.281Z,72.25
2022-11-29T02:50:38.892Z,72.77
2022-11-29T02:53:35.798Z,72.74
2022-11-29T02:56:20.739Z,72.76
2022-11-29T02:58:54.543Z,72.71
2022-11-29T03:01:30.316Z,72.79
2022-11-29T03:04:13.989Z,73.11
2022-11-29T03:07:05.426Z,73.05
2022-11-29T03:09:48.800Z,72.83
2022-11-29T03:12:21.177Z,73.05
2022-11-29T03:14:57.632Z,72.86
2022-11-29T03:17:38.040Z,72.88
2022-11-29T03:20:26.007Z,73.06
2022-11-29T03:23:19.814Z,73.05
2022-11-29T03:25:57.088Z,73.28
2022-11-29T03:28:31.213Z,73.06
2022-11-29T03:31:00.784Z,72.83
2022-11-29T03:34:10.670Z,72.97
2022-11-29T03:37:14.718Z,72.74
2022-11-29T03:39:44.420Z,72.95
2022-11-29T03:42:49.692Z,73.02
2022-11-29T03:45:34.942Z,72.83
2022-11-29T03:48:15.982Z,72.72
2022-11-29T03:50:56.697Z,72.97
2022-11-29T03:53:36.087Z,72.90
2022-11-29T03:56:23.267Z,72.90
2022-11-29T03:59:27.551Z,72.72
2022-11-29T04:02:36.393Z,73.04
2022-11-29T04:05:27.410Z,72.89
2022-11-29T04:07:57.420Z,72.95
2022-11-29T04:10:47.464Z,73.02
2022-11-29T04:13:42.305Z,72.83
2022-11-29T04:16:09.025Z,73.14
2022-11-29T04:19:04.031Z,72.75
2022-11-29T04:21:45.538Z,73.00
2022-11-29T04:24:36.922Z,72.72
2022-11-29T04:27:49.146Z,72.81
2022-11-29T04:30:20.095Z,73.08
2022-11-29T04:32:55.899Z,73.06
2022-11-29T04:35:48.462Z,73.16
2022-11-29T04:38:33.925Z,73.16
2022-11-29T04:41:28.590Z,73.41
2022-11-29T04:44:07.471Z,73.31
2022-11-29T04:46:46.200Z,73.76
2022-11-29T04:49:29.154Z,73.76
2022-11-29T04:52:17.414Z,73.66
2022-11-29T04:55:02.534Z,73.96
2022-11-29T04:57:37.379Z,74.14
2022-11-29T05:00:11.912Z,73.83
2022-11-29T05:02:48.453Z,73.95
2022-11-29T05:05:59.935Z,74.14
2022-11-29T05:08:50.364Z,74.16
2022-11-29T05:11:31.948Z,74.30
2022-11-29T05:14:24.479Z,74.00
2022-11-29T05:16:58.870Z,74.36
2022-11-29T05:19:40.397Z,74.19
2022-11-29T05:22:22.350Z,74.18
2022-11-29T05:25:01.124Z,74.24
2022-11-29T05:27:46.761Z,74.30
2022-11-29T05:30:20.867Z,74.08
2022-11-29T05:32:55.881Z,74.08
2022-11-29T05:35:50.168Z,74.34
2022-11-29T05:38:41.147Z,74.26
2022-11-29T05:41:32.994Z,74.00
2022-11-29T05:44:04.932Z,74.10
2022-11-29T05:46:42.844Z,74.16
2022-11-29T05:49:31.069Z,74.30
2022-11-29T05:52:18.325Z,74.51
2022-11-29T05:54:48.138Z,74.46
2022-11-29T05:57:33.891Z,74.12
2022-11-29T06:00:03.543Z,74.46
2022-11-29T06:02:39.970Z,74.61
2022-11-29T06:05:17.111Z,74.44
2022-11-29T06:08:08.659Z,74.32
2022-11-29T06:10:40.429Z,74.53
2022-11-29T06:13:28.932Z,74.08
2022-11-29T06:16:18.200Z,74.17
2022-11-29T06:19:12.820Z,74.21
2022-11-29T06:22:21.183Z,74.23
2022-11-29T06:25:12.455Z,74.31
2022-11-29T06:28:00.913Z,74.25
2022-11-29T06:30:41.282Z,74.27
2022-11-29T06:33:19.253Z,74.08
2022-11-29T06:35:54.575Z,74.39
2022-11-29T06:38:30.278Z,74.19
2022-11-29T06:41:01.840Z,74.36
2022-11-29T06:43:29.912Z,74.28
2022-11-29T06:46:15.313Z,74.05
2022-11-29T06:49:14.235Z,74.18
2022-11-29T06:51:51.396Z,74.14
2022-11-29T06:54:18.213Z,74.18
2022-11-29T06:57:17.381Z,74.60
2022-11-29T07:00:04.841Z,74.70
2022-11-29T07:02:40.827Z,74.61
2022-11-29T07:05:20.188Z,74.51
2022-11-29T07:07:48.685Z,74.42
2022-11-29T07:10:19.342Z,74.39
2022-11-29T07:12:48.313Z,74.76
2022-11-29T07:15:18.777Z,74.75
2022-11-29T07:18:05.719Z,74.55
2022-11-29T07:20:51.313Z,74.90
2022-11-29T07:23:32.264Z,74.80
2022-11-29T07:26:37.198Z,74.75
2022-11-29T07:29:25.491Z,74.91
2022-11-29T07:32:14.790Z,74.68
2022-11-29T07:34:53.286Z,74.88
2022-11-29T07:37:20.249Z,74.97
2022-11-29T07:40:13.980Z,75.10
2022-11-29T07:42:43.654Z,74.88
2022-11-29T07:45:36.239Z,74.66
2022-11-29T07:48:04.231Z,74.76
2022-11-29T07:50:31.652Z,75.08
2022-11-29T07:53:00.252Z,75.24
2022-11-29T07:55:27.687Z,75.12
2022-11-29T07:57:54.293Z,75.59
2022-11-29T08:00:21.921Z,75.49
2022-11-29T08:02:50.682Z,75.48
2022-11-29T08:05:18.076Z,75.30
2022-11-29T08:07:44.741Z,75.67
2022-11-29T08:10:14.624Z,75.84
2022-11-29T08:12:47.828Z,75.87
2022-11-29T08:15:14.850Z,75.94
2022-11-29T08:17:41.688Z,75.71
2022-11-29T08:20:10.393Z,75.86
2022-11-29T08:22:37.518Z,75.94
2022-11-29T08:25:05.428Z,76.26
2022-11-29T08:27:32.089Z,75.98
2022-11-29T08:29:59.013Z,76.14
2022-11-29T08:32:26.519Z,76.26
2022-11-29T08:34:53.152Z,76.38
2022-11-29T08:37:20.069Z,76.59
2022-11-29T08:39:46.836Z,76.42
2022-11-29T08:42:13.465Z,76.74
2022-11-29T08:44:40.401Z,76.50
2022-11-29T08:47:25.844Z,76.84
2022-11-29T08:50:01.431Z,76.77
2022-11-29T08:52:51.558Z,76.75
2022-11-29T08:55:20.878Z,76.51
2022-11-29T08:57:48.305Z,76.51
2022-11-29T09:00:15.835Z,76.66
2022-11-29T09:02:42.770Z,76.67
2022-11-29T09:05:10.705Z,76.40
2022-11-29T09:07:38.605Z,76.42
2022-11-29T09:10:08.308Z,75.89
2022-11-29T09:12:39.981Z,76.23
2022-11-29T09:15:09.606Z,76.27
2022-11-29T09:17:36.274Z,75.88
2022-11-29T09:20:03.425Z,75.72
2022-11-29T09:22:30.075Z,75.84
2022-11-29T09:24:57.351Z,75.76
2022-11-29T09:27:23.990Z,75.47
2022-11-29T09:29:50.838Z,75.21
2022-11-29T09:32:17.501Z,75.21
2022-11-29T09:34:44.418Z,75.02
2022-11-29T09:37:11.485Z,74.75
2022-11-29T09:39:38.297Z,74.35
2022-11-29T09:42:28.362Z,73.94
2022-11-29T09:45:02.771Z,73.22
2022-11-29T09:47:41.684Z,72.94
2022-11-29T09:50:23.482Z,72.70
2022-11-29T09:53:02.179Z,72.22
2022-11-29T09:55:47.242Z,71.94
2022-11-29T09:58:21.014Z,71.38
2022-11-29T10:00:51.314Z,70.87
2022-11-29T10:03:27.799Z,70.69
2022-11-29T10:05:59.970Z,70.36
2022-11-29T10:08:36.952Z,70.18
2022-11-29T10:11:22.578Z,69.49
2022-11-29T10:13:55.732Z,69.28
2022-11-29T10:16:36.295Z,68.63
2022-11-29T10:19:15.721Z,68.35
2022-11-29T10:21:45.632Z,68.03
2022-11-29T10:24:17.937Z,67.57
2022-11-29T10:26:44.642Z,67.49
2022-11-29T10:29:15.796Z,66.81
2022-11-29T10:31:49.693Z,66.76
2022-11-29T10:34:19.971Z,66.34
2022-11-29T10:36:49.890Z,66.15
2022-11-29T10:39:37.320Z,65.90
2022-11-29T10:42:07.079Z,65.83
2022-11-29T10:44:34.090Z,65.46
2022-11-29T10:47:10.463Z,64.91
2022-11-29T10:49:37.928Z,64.53
2022-11-29T10:52:05.935Z,64.50
2022-11-29T10:54:40.101Z,64.31
2022-11-29T10:57:15.632Z,64.46
2022-11-29T10:59:57.717Z,64.13
2022-11-29T11:02:24.685Z,63.64
2022-11-29T11:04:51.427Z,63.42
2022-11-29T11:07:25.246Z,63.07
2022-11-29T11:09:56.164Z,62.63
2022-11-29T11:12:27.505Z,62.39
2022-11-29T11:15:13.789Z,62.09
2022-11-29T11:17:42.292Z,61.43
2022-11-29T11:20:24.063Z,61.26
2022-11-29T11:23:06.883Z,61.09
2022-11-29T11:25:36.290Z,60.43
2022-11-29T11:28:17.249Z,60.01
2022-11-29T11:31:01.526Z,59.59
2022-11-29T11:33:36.903Z,59.32
2022-11-29T11:36:05.649Z,59.06
2022-11-29T11:38:37.811Z,58.82
2022-11-29T11:41:19.177Z,58.49
2022-11-29T11:43:59.062Z,58.16
2022-11-29T11:46:52.116Z,57.93
2022-11-29T11:49:49.953Z,57.58
2022-11-29T11:52:27.725Z,57.54
2022-11-29T11:54:58.734Z,57.13
2022-11-29T11:57:26.852Z,56.94
2022-11-29T11:59:56.108Z,56.63
2022-11-29T12:02:35.749Z,56.58
2022-11-29T12:05:06.571Z,56.16
2022-11-29T12:08:06.877Z,55.89
2022-11-29T12:10:32.598Z,56.37
2022-11-29T12:13:00.758Z,55.66
2022-11-29T12:15:27.325Z,55.63
2022-11-29T12:18:06.383Z,55.26
2022-11-29T12:20:40.737Z,55.20
2022-11-29T12:23:27.390Z,55.18
2022-11-29T12:26:19.233Z,54.94
2022-11-29T12:29:00.325Z,55.06
2022-11-29T12:31:44.097Z,55.11
2022-11-29T12:34:34.045Z,55.10
2022-11-29T12:37:14.584Z,54.77
2022-11-29T12:40:06.738Z,54.96
2022-11-29T12:42:49.592Z,54.84
2022-11-29T12:45:46.831Z,54.87
2022-11-29T12:48:45.815Z,55.13
2022-11-29T12:51:46.910Z,55.08
2022-11-29T12:54:47.949Z,55.24
2022-11-29T12:57:44.078Z,55.30
2022-11-29T13:00:14.997Z,55.14
2022-11-29T13:02:49.199Z,55.21
2022-11-29T13:05:15.650Z,55.52
2022-11-29T13:08:01.825Z,55.42
2022-11-29T13:10:58.116Z,55.28
2022-11-29T13:13:40.161Z,55.68
2022-11-29T13:16:35.173Z,55.77
2022-11-29T13:19:24.339Z,56.08
2022-11-29T13:22:14.126Z,56.01
2022-11-29T13:24:52.186Z,55.89
2022-11-29T13:27:25.278Z,55.80
2022-11-29T13:29:53.129Z,55.81
2022-11-29T13:32:51.815Z,55.97
2022-11-29T13:35:22.102Z,55.97
2022-11-29T13:37:55.757Z,55.92
2022-11-29T13:40:31.265Z,56.13
2022-11-29T13:43:10.016Z,56.49
2022-11-29T13:46:10.029Z,56.59
2022-11-29T13:48:47.777Z,56.79
2022-11-29T13:51:25.333Z,56.91
2022-11-29T13:53:53.053Z,56.88
2022-11-29T13:56:27.477Z,57.31
2022-11-29T13:58:54.953Z,57.46
2022-11-29T14:01:23.443Z,57.65
2022-11-29T14:04:03.790Z,57.83
2022-11-29T14:06:40.681Z,57.96
2022-11-29T14:09:25.655Z,58.04
2022-11-29T14:12:19.760Z,58.16
2022-11-29T14:14:55.393Z,58.46
2022-11-29T14:17:30.664Z,58.71
2022-11-29T14:20:23.501Z,58.83
2022-11-29T14:23:05.451Z,59.44
2022-11-29T14:25:51.490Z,59.76
2022-11-29T14:28:21.992Z,60.32
2022-11-29T14:30:50.963Z,60.33
2022-11-29T14:33:38.604Z,60.58
2022-11-29T14:36:26.363Z,60.69
2022-11-29T14:39:20.207Z,60.76
2022-11-29T14:42:18.873Z,60.88
2022-11-29T14:44:51.089Z,61.15
2022-11-29T14:47:29.907Z,61.44
2022-11-29T14:49:59.274Z,61.69
2022-11-29T14:52:35.994Z,61.77
2022-11-29T14:55:14.550Z,61.80
2022-11-29T14:57:50.531Z,61.93
2022-11-29T15:00:35.234Z,62.10
2022-11-29T15:03:06.845Z,62.06
2022-11-29T15:05:38.084Z,62.24
2022-11-29T15:08:35.180Z,62.45
2022-11-29T15:11:27.200Z,62.78
2022-11-29T15:14:07.479Z,62.88
2022-11-29T15:17:25.028Z,62.99
2022-11-29T15:20:13.610Z,63.29
2022-11-29T15:22:43.112Z,63.16
2022-11-29T15:25:19.506Z,63.66
2022-11-29T15:27:53.624Z,63.33
2022-11-29T15:30:21.228Z,63.47
2022-11-29T15:32:47.890Z,63.39
2022-11-29T15:35:19.322Z,63.77
2022-11-29T15:37:49.934Z,63.84
2022-11-29T15:40:19.828Z,64.05
2022-11-29T15:43:02.429Z,64.27
2022-11-29T15:45:34.665Z,64.50
2022-11-29T15:48:25.631Z,64.83
2022-11-29T15:51:01.856Z,64.55
2022-11-29T15:53:53.973Z,64.71
2022-11-29T15:56:48.495Z,64.97
2022-11-29T15:59:29.462Z,65.39
2022-11-29T16:02:00.539Z,65.28
2022-11-29T16:04:27.354Z,65.06
2022-11-29T16:06:55.786Z,65.35
2022-11-29T16:09:51.346Z,65.31
2022-11-29T16:12:18.756Z,65.33
2022-11-29T16:14:52.925Z,65.59
2022-11-29T16:17:20.951Z,65.11
2022-11-29T16:19:48.573Z,65.06
2022-11-29T16:22:26.256Z,65.29
2022-11-29T16:24:55.765Z,65.64
2022-11-29T16:27:23.539Z,65.66
2022-11-29T16:29:55.205Z,65.79
2022-11-29T16:32:29.109Z,66.00
2022-11-29T16:34:57.825Z,65.87
2022-11-29T16:37:29.095Z,66.14
2022-11-29T16:40:00.229Z,66.18
2022-11-29T16:42:29.509Z,66.11
2022-11-29T16:45:04.581Z,66.52
2022-11-29T16:47:46.657Z,66.36
2022-11-29T16:50:17.350Z,66.63
2022-11-29T16:52:44.403Z,66.73
2022-11-29T16:55:13.111Z,66.36
2022-11-29T16:57:44.660Z,66.76
2022-11-29T17:00:32.581Z,66.91
2022-11-29T17:02:59.861Z,67.16
2022-11-29T17:05:27.243Z,67.45
2022-11-29T17:07:54.546Z,67.13
2022-11-29T17:10:25.797Z,67.11
2022-11-29T17:12:52.862Z,67.16
2022-11-29T17:15:19.501Z,67.15
2022-11-29T17:17:46.426Z,67.10
2022-11-29T17:20:13.641Z,66.97
2022-11-29T17:22:41.026Z,67.22
2022-11-29T17:25:08.518Z,67.08
2022-11-29T17:27:36.122Z,67.10
2022-11-29T17:30:03.627Z,67.21
2022-11-29T17:32:30.509Z,67.25
2022-11-29T17:34:57.155Z,67.12
2022-11-29T17:37:23.823Z,67.32
2022-11-29T17:39:50.892Z,67.54
2022-11-29T17:42:17.794Z,67.55
2022-11-29T17:44:44.440Z,67.53
2022-11-29T17:47:11.276Z,67.81
2022-11-29T17:49:37.860Z,67.79
2022-11-29T17:52:04.773Z,68.04
2022-11-29T17:54:33.418Z,68.35
2022-11-29T17:57:00.924Z,68.31
2022-11-29T17:59:27.697Z,68.35
2022-11-29T18:01:54.743Z,68.42
2022-11-29T18:04:21.885Z,68.57
2022-11-29T18:06:50.407Z,68.36
2022-11-29T18:09:18.435Z,68.17
2022-11-29T18:11:49.269Z,68.55
2022-11-29T18:14:28.507Z,68.16
2022-11-29T18:16:55.471Z,68.28
2022-11-29T18:19:25.484Z,68.23
2022-11-29T18:21:52.482Z,68.46
2022-11-29T18:24:19.334Z,68.67
2022-11-29T18:26:46.197Z,68.60
2022-11-29T18:29:12.996Z,68.53
2022-11-29T18:31:44.650Z,68.59
2022-11-29T18:34:13.235Z,68.57
2022-11-29T18:36:45.866Z,68.46
2022-11-29T18:39:20.219Z,68.88
2022-11-29T18:41:49.241Z,68.64
2022-11-29T18:44:17.815Z,68.83
2022-11-29T18:46:45.836Z,68.84
2022-11-29T18:49:14.899Z,68.97
2022-11-29T18:51:46.555Z,68.70
2022-11-29T18:54:15.019Z,68.85
2022-11-29T18:56:42.650Z,68.55
2022-11-29T18:59:16.887Z,68.95
2022-11-29T19:01:46.077Z,68.60
2022-11-29T19:04:15.487Z,68.65
2022-11-29T19:06:42.938Z,68.47
2022-11-29T19:09:23.441Z,68.64
2022-11-29T19:11:50.832Z,68.94
2022-11-29T19:14:18.386Z,68.93
2022-11-29T19:16:46.769Z,69.00
2022-11-29T19:19:13.616Z,68.94
2022-11-29T19:21:41.056Z,68.88
2022-11-29T19:24:14.311Z,69.22
2022-11-29T19:26:44.479Z,69.28
2022-11-29T19:29:11.510Z,69.51
2022-11-29T19:31:39.371Z,69.47
2022-11-29T19:34:06.493Z,69.51
2022-11-29T19:36:33.113Z,69.58
2022-11-29T19:39:01.761Z,69.67
2022-11-29T19:41:31.593Z,69.53
2022-11-29T19:44:00.616Z,69.55
2022-11-29T19:46:34.372Z,69.40
2022-11-29T19:49:01.624Z,69.54
2022-11-29T19:51:29.631Z,69.39
2022-11-29T19:53:59.296Z,69.37
2022-11-29T19:56:26.564Z,69.24
2022-11-29T19:58:53.232Z,69.47
2022-11-29T20:01:25.480Z,69.56
2022-11-29T20:03:52.986Z,69.48
2022-11-29T20:06:19.634Z,69.24
2022-11-29T20:08:46.693Z,69.34
2022-11-29T20:11:21.842Z,69.62
2022-11-29T20:13:59.805Z,69.60
2022-11-29T20:16:27.876Z,69.73
2022-11-29T20:18:55.243Z,69.71
2022-11-29T20:21:25.978Z,69.94
2022-11-29T20:23:57.358Z,69.85
2022-11-29T20:26:24.904Z,69.83
2022-11-29T20:28:51.616Z,70.10
2022-11-29T20:31:22.880Z,69.87
2022-11-29T20:33:52.026Z,70.30
2022-11-29T20:36:30.832Z,70.36
2022-11-29T20:39:08.448Z,70.26
2022-11-29T20:41:45.651Z,70.19
2022-11-29T20:44:19.797Z,70.20
2022-11-29T20:46:46.733Z,69.87
2022-11-29T20:49:15.277Z,70.02
2022-11-29T20:51:51.798Z,70.08
2022-11-29T20:54:19.705Z,70.01
2022-11-29T20:56:46.592Z,70.51
2022-11-29T20:59:13.415Z,70.69
2022-11-29T21:01:40.047Z,70.63
2022-11-29T21:04:06.839Z,70.38
2022-11-29T21:06:37.662Z,70.84
2022-11-29T21:09:05.049Z,70.93
2022-11-29T21:11:32.269Z,70.53
2022-11-29T21:14:03.441Z,70.92
2022-11-29T21:16:31.674Z,70.64
2022-11-29T21:19:01.456Z,70.86
2022-11-29T21:22:02.064Z,70.65
2022-11-29T21:24:49.741Z,70.78
2022-11-29T21:27:21.087Z,70.63
2022-11-29T21:29:48.016Z,70.67
2022-11-29T21:32:21.915Z,70.77
2022-11-29T21:34:48.990Z,70.89
2022-11-29T21:37:18.333Z,70.55
2022-11-29T21:39:45.657Z,70.63
2022-11-29T21:42:12.257Z,70.87
2022-11-29T21:44:39.061Z,70.92
2022-11-29T21:47:06.249Z,70.57
2022-11-29T21:49:33.149Z,70.80
2022-11-29T21:52:02.914Z,70.76
2022-11-29T21:54:30.152Z,70.76
2022-11-29T21:56:56.886Z,71.00
2022-11-29T21:59:24.953Z,70.82
2022-11-29T22:01:52.735Z,70.68
2022-11-29T22:04:19.915Z,70.58
2022-11-29T22:06:47.688Z,70.79
2022-11-29T22:09:14.802Z,70.97
2022-11-29T22:11:41.670Z,70.82
2022-11-29T22:14:13.593Z,70.83
2022-11-29T22:16:44.114Z,71.14
2022-11-29T22:19:15.067Z,71.12
2022-11-29T22:21:43.646Z,71.17
2022-11-29T22:24:11.789Z,70.82
2022-11-29T22:26:38.885Z,70.98
2022-11-29T22:29:06.140Z,70.94
2022-11-29T22:31:33.038Z,71.28
2022-11-29T22:33:59.625Z,71.27
2022-11-29T22:36:26.468Z,71.29
2022-11-29T22:38:53.338Z,71.23
2022-11-29T22:41:20.770Z,71.35
2022-11-29T22:43:47.431Z,71.36
2022-11-29T22:46:22.835Z,71.37
2022-11-29T22:48:52.507Z,71.36
2022-11-29T22:51:22.263Z,71.51
2022-11-29T22:53:54.842Z,71.53
2022-11-29T22:56:23.337Z,71.48
2022-11-29T22:58:50.368Z,71.46
2022-11-29T23:01:19.729Z,71.80
2022-11-29T23:03:49.271Z,71.54
2022-11-29T23:06:18.591Z,71.62
2022-11-29T23:08:46.903Z,71.66
2022-11-29T23:11:22.761Z,72.06
2022-11-29T23:13:50.149Z,71.45
2022-11-29T23:16:19.174Z,71.61
2022-11-29T23:18:46.475Z,71.63
2022-11-29T23:21:35.276Z,71.66
2022-11-29T23:24:02.357Z,71.37
2022-11-29T23:26:37.762Z,71.63
2022-11-29T23:29:10.842Z,71.76
2022-11-29T23:31:37.877Z,71.90
2022-11-29T23:34:05.484Z,71.76
2022-11-29T23:36:32.232Z,71.45
2022-11-29T23:38:58.953Z,71.79
2022-11-29T23:41:25.617Z,71.71
2022-11-29T23:43:52.487Z,71.71
2022-11-29T23:46:21.661Z,71.58
2022-11-29T23:48:49.254Z,71.48
2022-11-29T23:51:16.800Z,71.67
2022-11-29T23:53:44.130Z,71.71
2022-11-29T23:56:15.126Z,71.81
2022-11-29T23:58:43.078Z,71.72
